Arlington, Mississippi
Current Conditions -  °F | °C
As of 4:55 PM on Tuesday 21 Oct 2014 (Local Time) from K1R7 Reporting Station
Clear Clear  
Wind Chill: 77°   Ceiling: Unl
Heat Index: 79°   Visibility: 9mi
Dew Point: 57°   Wind: 7mph
Humidity: 50%   Direction: 330°NNW
Pressure: 30.02"   Gusts: NA
Location:  31.4439°N, 90.4692°W
Report Text: K1R7 212155Z AUTO 33006KT 9SM CLR 25/14 A3002 RMK AO2
Loading
Personal Weather Stations






























Interactive Weather Map New forecast layout! Learn more

10-Day Weather Forecast

Advertisements
Track Severe Weather on mobile